Terminal Aerodrome Forecast
Issued by NWS

Home | Current Version | Previous Version | Text Only | Print | Product List | Glossary On
Versions: 1 2 3 4 5 6 7 8 9 10 11 12 13 14 15 16 17 18 19 20 21 22 23 24 25 26
000
FTUS42 KRAH 110540
TAFINT
TAF
KINT 110540Z 1106/1206 00000KT P6SM SCT250
     FM111700 17007KT P6SM SCT040 BKN250
     FM112100 17007KT P6SM BKN025 OVC035
     FM120100 22003KT P6SM -RA OVC016=

USA.gov is the U.S. government's official web portal to all federal, state and local government web resources and services.